createdAt,value
2022-08-07T00:00:23.930Z,1.50
2022-08-07T00:02:51.057Z,1.20
2022-08-07T00:05:20.049Z,1.30
2022-08-07T00:07:47.037Z,1.50
2022-08-07T00:10:25.859Z,1.10
2022-08-07T00:12:59.973Z,1.40
2022-08-07T00:15:38.423Z,1.30
2022-08-07T00:18:19.173Z,0.90
2022-08-07T00:20:49.473Z,1.15
2022-08-07T00:23:17.225Z,1.40
2022-08-07T00:25:45.771Z,1.20
2022-08-07T00:28:18.617Z,1.15
2022-08-07T00:30:48.473Z,1.30
2022-08-07T00:33:15.744Z,1.30
2022-08-07T00:35:45.382Z,1.38
2022-08-07T00:38:14.138Z,1.02
2022-08-07T00:40:41.956Z,1.05
2022-08-07T00:44:00.579Z,1.13
2022-08-07T00:46:00.266Z,1.42
2022-08-07T00:48:31.751Z,1.30
2022-08-07T00:51:00.399Z,1.20
2022-08-07T00:53:27.313Z,0.85
2022-08-07T00:56:13.818Z,0.93
2022-08-07T00:58:46.907Z,0.98
2022-08-07T01:01:14.623Z,0.80
2022-08-07T01:03:56.314Z,0.90
2022-08-07T01:06:30.189Z,0.80
2022-08-07T01:09:00.634Z,1.10
2022-08-07T01:12:09.387Z,1.25
2022-08-07T01:14:28.714Z,1.20
2022-08-07T01:16:56.084Z,1.13
2022-08-07T01:19:22.984Z,1.08
2022-08-07T01:21:53.053Z,1.50
2022-08-07T01:24:21.626Z,1.30
2022-08-07T01:26:51.937Z,1.17
2022-08-07T01:29:19.781Z,0.82
2022-08-07T01:31:46.301Z,1.42
2022-08-07T01:34:17.830Z,1.02
2022-08-07T01:36:52.717Z,1.08
2022-08-07T01:39:39.616Z,1.05
2022-08-07T01:42:39.718Z,1.05
2022-08-07T01:45:04.918Z,1.50
2022-08-07T01:48:18.365Z,1.05
2022-08-07T01:50:28.929Z,1.40
2022-08-07T01:52:58.395Z,1.20
2022-08-07T01:55:37.601Z,0.80
2022-08-07T01:58:29.303Z,1.30
2022-08-07T02:01:09.713Z,1.20
2022-08-07T02:03:48.805Z,0.93
2022-08-07T02:06:31.666Z,1.13
2022-08-07T02:09:01.653Z,1.23
2022-08-07T02:12:03.268Z,1.08
2022-08-07T02:14:36.366Z,0.98
2022-08-07T02:17:08.494Z,1.20
2022-08-07T02:20:04.181Z,1.25
2022-08-07T02:22:25.780Z,1.20
2022-08-07T02:24:54.636Z,1.05
2022-08-07T02:27:23.252Z,1.23
2022-08-07T02:29:54.355Z,1.10
2022-08-07T02:32:23.495Z,0.98
2022-08-07T02:34:54.510Z,1.25
2022-08-07T02:37:23.328Z,1.10
2022-08-07T02:40:02.256Z,1.20
2022-08-07T02:42:38.625Z,1.08
2022-08-07T02:45:55.899Z,0.93
2022-08-07T02:47:54.706Z,1.05
2022-08-07T02:50:26.277Z,1.20
2022-08-07T02:53:06.352Z,1.10
2022-08-07T02:56:02.451Z,0.90
2022-08-07T02:58:27.344Z,1.08
2022-08-07T03:00:57.314Z,1.25
2022-08-07T03:03:42.158Z,1.20
2022-08-07T03:06:16.314Z,1.00
2022-08-07T03:08:43.686Z,1.23
2022-08-07T03:11:11.035Z,1.35
2022-08-07T03:13:38.690Z,1.48
2022-08-07T03:16:06.106Z,1.30
2022-08-07T03:18:34.797Z,1.25
2022-08-07T03:21:08.480Z,1.40
2022-08-07T03:24:19.660Z,1.35
2022-08-07T03:26:28.219Z,1.27
2022-08-07T03:28:56.842Z,1.15
2022-08-07T03:31:42.258Z,1.70
2022-08-07T03:34:18.493Z,1.35
2022-08-07T03:36:50.562Z,1.30
2022-08-07T03:39:42.038Z,1.60
2022-08-07T03:42:06.922Z,1.20
2022-08-07T03:44:35.955Z,1.50
2022-08-07T03:47:13.893Z,1.55
2022-08-07T03:49:42.395Z,1.50
2022-08-07T03:52:22.517Z,1.55
2022-08-07T03:54:55.140Z,1.20
2022-08-07T03:58:32.542Z,1.45
2022-08-07T04:00:14.322Z,1.45
2022-08-07T04:02:47.481Z,0.90
2022-08-07T04:07:47.624Z,1.17
2022-08-07T04:10:15.674Z,1.02
2022-08-07T04:12:47.933Z,1.65
2022-08-07T04:15:15.825Z,0.95
2022-08-07T04:18:58.353Z,1.20
2022-08-07T04:20:31.261Z,1.13
2022-08-07T04:23:02.205Z,1.10
2022-08-07T04:25:39.222Z,1.05
2022-08-07T04:28:13.391Z,1.10
2022-08-07T04:30:55.491Z,1.38
2022-08-07T04:33:25.192Z,1.30
2022-08-07T04:35:53.935Z,1.45
2022-08-07T04:38:21.911Z,1.35
2022-08-07T04:40:51.875Z,1.38
2022-08-07T04:44:13.170Z,1.30
2022-08-07T04:46:29.486Z,1.35
2022-08-07T04:49:18.053Z,1.58
2022-08-07T04:52:00.143Z,1.10
2022-08-07T04:55:15.463Z,1.40
2022-08-07T04:58:12.544Z,1.30
2022-08-07T05:01:20.384Z,1.45
2022-08-07T05:04:19.094Z,1.73
2022-08-07T05:07:19.666Z,1.42
2022-08-07T05:09:49.769Z,1.40
2022-08-07T05:12:26.786Z,1.40
2022-08-07T05:15:15.972Z,1.98
2022-08-07T05:18:16.351Z,1.70
2022-08-07T05:20:49.243Z,1.30
2022-08-07T05:23:29.022Z,1.60
2022-08-07T05:26:11.701Z,1.40
2022-08-07T05:28:48.730Z,1.60
2022-08-07T05:31:20.012Z,1.27
2022-08-07T05:33:51.381Z,1.58
2022-08-07T05:36:35.306Z,1.63
2022-08-07T05:39:08.943Z,1.98
2022-08-07T05:42:01.446Z,1.90
2022-08-07T05:44:33.428Z,1.75
2022-08-07T05:47:01.394Z,1.88
2022-08-07T05:49:40.526Z,2.50
2022-08-07T05:52:08.685Z,1.35
2022-08-07T05:54:44.459Z,1.50
2022-08-07T05:57:21.019Z,1.52
2022-08-07T05:59:57.971Z,1.90
2022-08-07T06:02:29.598Z,1.70
2022-08-07T06:05:03.382Z,2.22
2022-08-07T06:08:09.183Z,2.08
2022-08-07T06:10:18.240Z,2.22
2022-08-07T06:12:45.536Z,2.33
2022-08-07T06:15:16.235Z,2.25
2022-08-07T06:17:53.684Z,2.28
2022-08-07T06:20:32.088Z,2.92
2022-08-07T06:23:45.781Z,2.20
2022-08-07T06:25:58.707Z,2.20
2022-08-07T06:28:27.493Z,2.17
2022-08-07T06:30:55.655Z,2.78
2022-08-07T06:33:22.921Z,2.10
2022-08-07T06:36:06.900Z,1.90
2022-08-07T06:38:36.331Z,2.25
2022-08-07T06:41:09.814Z,2.30
2022-08-07T06:43:46.558Z,1.55
2022-08-07T06:46:31.384Z,2.25
2022-08-07T06:49:04.370Z,2.17
2022-08-07T06:51:34.715Z,1.55
2022-08-07T06:55:29.987Z,1.52
2022-08-07T06:56:51.006Z,1.52
2022-08-07T07:00:11.855Z,1.73
2022-08-07T07:02:48.567Z,1.23
2022-08-07T07:05:03.468Z,1.02
2022-08-07T07:07:58.399Z,1.05
2022-08-07T07:10:26.937Z,1.13
2022-08-07T07:12:59.820Z,0.90
2022-08-07T07:15:36.021Z,1.42
2022-08-07T07:18:08.608Z,1.30
2022-08-07T07:20:45.750Z,1.17
2022-08-07T07:24:09.624Z,1.25
2022-08-07T07:26:33.920Z,1.50
2022-08-07T07:29:56.108Z,1.25
2022-08-07T07:31:47.053Z,0.90
2022-08-07T07:34:18.109Z,1.20
2022-08-07T07:36:47.927Z,0.90
2022-08-07T07:39:22.631Z,1.10
2022-08-07T07:42:08.838Z,1.02
2022-08-07T07:44:43.452Z,1.00
2022-08-07T07:47:15.970Z,1.00
2022-08-07T07:50:35.829Z,1.00
2022-08-07T07:52:39.556Z,0.90
2022-08-07T07:55:09.066Z,1.10
2022-08-07T07:57:52.586Z,1.15
2022-08-07T08:00:29.468Z,4.47
2022-08-07T08:03:16.737Z,1.10
2022-08-07T08:05:57.206Z,1.13
2022-08-07T08:08:35.088Z,0.88
2022-08-07T08:11:09.331Z,0.90
2022-08-07T08:13:53.352Z,0.80
2022-08-07T08:16:29.997Z,0.95
2022-08-07T08:19:00.537Z,0.93
2022-08-07T08:22:06.008Z,0.95
2022-08-07T08:25:18.342Z,0.80
2022-08-07T08:27:57.114Z,0.85
2022-08-07T08:30:29.563Z,1.17
2022-08-07T08:33:02.961Z,0.88
2022-08-07T08:35:39.099Z,1.20
2022-08-07T08:38:16.766Z,0.90
2022-08-07T08:40:49.614Z,1.13
2022-08-07T08:43:42.688Z,1.00
2022-08-07T08:46:28.880Z,0.88
2022-08-07T08:49:09.775Z,0.88
2022-08-07T08:52:01.163Z,1.40
2022-08-07T08:54:41.441Z,1.20
2022-08-07T08:57:21.426Z,1.77
2022-08-07T09:00:01.714Z,1.17
2022-08-07T09:02:41.811Z,1.75
2022-08-07T09:05:40.757Z,1.60
2022-08-07T09:08:28.447Z,1.35
2022-08-07T09:11:10.707Z,1.45
2022-08-07T09:14:14.013Z,1.45
2022-08-07T09:16:47.523Z,1.40
2022-08-07T09:19:51.798Z,1.50
2022-08-07T09:24:34.481Z,1.88
2022-08-07T09:25:56.321Z,2.15
2022-08-07T09:30:00.792Z,1.73
2022-08-07T09:31:57.675Z,1.65
2022-08-07T09:34:53.846Z,1.63
2022-08-07T09:37:48.275Z,1.23
2022-08-07T09:40:40.380Z,1.30
2022-08-07T09:44:03.434Z,1.52
2022-08-07T09:47:51.887Z,1.50
2022-08-07T09:50:02.195Z,1.42
2022-08-07T09:52:51.781Z,1.75
2022-08-07T09:55:29.632Z,1.50
2022-08-07T09:58:33.538Z,1.50
2022-08-07T10:01:51.575Z,1.77
2022-08-07T10:04:33.839Z,1.30
2022-08-07T10:07:39.779Z,1.02
2022-08-07T10:10:43.645Z,1.38
2022-08-07T10:14:00.458Z,1.30
2022-08-07T10:16:36.058Z,0.98
2022-08-07T10:19:11.639Z,1.50
2022-08-07T10:22:15.404Z,1.30
2022-08-07T10:30:43.052Z,1.02
2022-08-07T10:34:05.600Z,1.23
2022-08-07T10:37:03.940Z,1.17
2022-08-07T10:40:06.153Z,0.98
2022-08-07T10:42:46.709Z,0.90
2022-08-07T10:45:48.060Z,1.20
2022-08-07T10:48:35.030Z,1.42
2022-08-07T10:51:04.907Z,1.50
2022-08-07T10:53:58.480Z,1.10
2022-08-07T10:57:04.657Z,1.08
2022-08-07T10:59:50.905Z,1.23
2022-08-07T11:02:34.082Z,1.40
2022-08-07T11:05:35.731Z,1.30
2022-08-07T11:08:43.579Z,1.30
2022-08-07T11:11:16.744Z,1.10
2022-08-07T11:14:45.310Z,1.08
2022-08-07T11:17:01.936Z,1.25
2022-08-07T11:19:55.785Z,1.00
2022-08-07T11:22:36.046Z,1.15
2022-08-07T11:25:18.441Z,1.10
2022-08-07T11:28:01.509Z,1.20
2022-08-07T11:30:42.288Z,1.10
2022-08-07T11:33:53.613Z,0.90
2022-08-07T11:36:30.810Z,1.50
2022-08-07T11:39:00.623Z,1.42
2022-08-07T11:42:01.596Z,1.20
2022-08-07T11:44:36.245Z,0.95
2022-08-07T11:47:22.855Z,0.80
2022-08-07T11:50:34.896Z,1.23
2022-08-07T11:53:43.258Z,1.00
2022-08-07T11:56:53.053Z,1.35
2022-08-07T12:00:12.504Z,1.10
2022-08-07T12:02:32.361Z,1.40
2022-08-07T12:05:09.091Z,0.90
2022-08-07T12:07:53.512Z,1.13
2022-08-07T12:10:42.443Z,1.00
2022-08-07T12:13:35.680Z,1.00
2022-08-07T12:16:09.177Z,1.10
2022-08-07T12:19:14.759Z,0.93
2022-08-07T12:22:36.191Z,1.50
2022-08-07T12:25:08.031Z,1.23
2022-08-07T12:28:09.794Z,1.20
2022-08-07T12:30:32.744Z,1.40
2022-08-07T12:33:23.229Z,1.00
2022-08-07T12:35:57.959Z,1.20
2022-08-07T12:38:38.477Z,0.80
2022-08-07T12:41:11.409Z,1.10
2022-08-07T12:44:04.498Z,1.23
2022-08-07T12:46:32.749Z,1.40
2022-08-07T12:49:44.671Z,0.98
2022-08-07T12:52:28.944Z,1.48
2022-08-07T12:55:16.454Z,1.10
2022-08-07T12:58:02.041Z,1.08
2022-08-07T13:00:49.766Z,1.45
2022-08-07T13:03:59.364Z,1.08
2022-08-07T13:07:05.110Z,1.02
2022-08-07T13:10:19.844Z,1.13
2022-08-07T13:13:11.830Z,1.00
2022-08-07T13:16:07.448Z,1.10
2022-08-07T13:18:53.622Z,0.90
2022-08-07T13:21:50.504Z,1.20
2022-08-07T13:24:30.702Z,1.08
2022-08-07T13:27:20.702Z,1.27
2022-08-07T13:29:58.354Z,1.00
2022-08-07T13:32:43.461Z,1.00
2022-08-07T13:35:25.563Z,1.00
2022-08-07T13:38:39.145Z,1.00
2022-08-07T13:41:35.538Z,1.27
2022-08-07T13:44:10.330Z,1.10
2022-08-07T13:46:49.322Z,1.17
2022-08-07T13:50:33.065Z,1.20
2022-08-07T13:52:30.535Z,1.30
2022-08-07T13:54:56.111Z,0.88
2022-08-07T13:57:37.632Z,0.93
2022-08-07T14:00:07.659Z,1.10
2022-08-07T14:02:45.719Z,1.08
2022-08-07T14:05:23.183Z,1.42
2022-08-07T14:10:34.896Z,1.20
2022-08-07T14:13:14.147Z,1.40
2022-08-07T14:15:50.477Z,1.10
2022-08-07T14:18:28.551Z,1.20
2022-08-07T14:21:08.389Z,1.30
2022-08-07T14:24:00.776Z,1.25
2022-08-07T14:26:50.756Z,1.15
2022-08-07T14:30:04.797Z,1.08
2022-08-07T14:32:12.463Z,0.90
2022-08-07T14:34:48.052Z,1.13
2022-08-07T14:37:23.735Z,1.30
2022-08-07T14:40:17.120Z,1.20
2022-08-07T14:43:58.259Z,0.90
2022-08-07T14:46:02.956Z,1.10
2022-08-07T14:48:34.002Z,1.30
2022-08-07T14:51:16.038Z,0.90
2022-08-07T14:54:05.739Z,1.10
2022-08-07T14:56:33.415Z,1.30
2022-08-07T14:59:13.861Z,1.20
2022-08-07T15:01:58.755Z,1.10
2022-08-07T15:04:25.937Z,1.33
2022-08-07T15:06:56.971Z,1.30
2022-08-07T15:12:25.630Z,0.95
2022-08-07T15:15:17.370Z,1.27
2022-08-07T15:17:56.280Z,1.00
2022-08-07T15:23:22.461Z,1.80
2022-08-07T15:28:56.609Z,1.10
2022-08-07T15:32:00.910Z,1.10
2022-08-07T15:34:14.965Z,1.27
2022-08-07T15:37:03.875Z,1.13
2022-08-07T15:39:56.899Z,1.25
2022-08-07T15:42:51.787Z,1.10
2022-08-07T15:45:58.175Z,1.13
2022-08-07T15:48:29.795Z,1.00
2022-08-07T15:51:01.248Z,1.17
2022-08-07T15:53:52.333Z,1.05
2022-08-07T15:56:24.567Z,1.08
2022-08-07T15:58:53.728Z,1.27
2022-08-07T16:01:38.505Z,0.80
2022-08-07T16:04:15.365Z,1.23
2022-08-07T16:06:52.477Z,1.23
2022-08-07T16:09:41.076Z,0.98
2022-08-07T16:12:38.048Z,0.98
2022-08-07T16:15:54.921Z,1.08
2022-08-07T16:18:54.346Z,1.08
2022-08-07T16:21:44.181Z,1.17
2022-08-07T16:24:38.423Z,1.08
2022-08-07T16:27:40.271Z,1.00
2022-08-07T16:30:30.885Z,1.05
2022-08-07T16:34:02.800Z,1.13
2022-08-07T16:36:31.373Z,1.00
2022-08-07T16:39:40.721Z,1.45
2022-08-07T16:42:36.606Z,1.08
2022-08-07T16:46:34.588Z,1.00
2022-08-07T16:49:04.395Z,1.13
2022-08-07T16:51:52.078Z,1.30
2022-08-07T16:54:54.968Z,1.30
2022-08-07T16:58:17.207Z,2.13
2022-08-07T17:01:15.642Z,1.00
2022-08-07T17:03:59.828Z,1.00
2022-08-07T17:07:04.368Z,0.80
2022-08-07T17:10:07.195Z,0.88
2022-08-07T17:12:44.366Z,0.93
2022-08-07T17:15:15.601Z,0.90
2022-08-07T17:17:48.167Z,0.60
2022-08-07T17:20:41.753Z,0.80
2022-08-07T17:23:32.630Z,0.90
2022-08-07T17:26:30.043Z,0.70
2022-08-07T17:28:58.450Z,0.80
2022-08-07T17:32:03.459Z,0.80
2022-08-07T17:35:33.114Z,0.50
2022-08-07T17:38:09.687Z,0.80
2022-08-07T17:41:12.371Z,0.80
2022-08-07T17:44:02.286Z,1.00
2022-08-07T17:46:47.192Z,0.50
2022-08-07T17:49:44.749Z,0.50
2022-08-07T17:52:31.089Z,0.70
2022-08-07T17:55:13.716Z,0.60
2022-08-07T17:57:59.314Z,0.57
2022-08-07T18:00:34.435Z,0.45
2022-08-07T18:04:03.992Z,0.38
2022-08-07T18:06:38.162Z,0.40
2022-08-07T18:09:06.493Z,0.47
2022-08-07T18:12:07.333Z,0.47
2022-08-07T18:14:46.236Z,0.90
2022-08-07T18:18:45.046Z,0.60
2022-08-07T18:21:12.641Z,0.40
2022-08-07T18:23:57.154Z,0.57
2022-08-07T18:26:51.498Z,0.60
2022-08-07T18:30:08.294Z,1.45
2022-08-07T18:32:46.461Z,0.70
2022-08-07T18:35:57.295Z,0.68
2022-08-07T18:39:00.874Z,0.52
2022-08-07T18:42:07.219Z,0.63
2022-08-07T18:48:00.749Z,0.63
2022-08-07T18:50:50.550Z,0.77
2022-08-07T18:53:45.198Z,0.50
2022-08-07T18:57:23.556Z,0.50
2022-08-07T19:03:37.470Z,0.40
2022-08-07T19:06:33.864Z,0.52
2022-08-07T19:09:55.426Z,0.57
2022-08-07T19:12:15.597Z,0.43
2022-08-07T19:15:01.927Z,0.52
2022-08-07T19:18:17.217Z,0.70
2022-08-07T19:24:01.359Z,0.35
2022-08-07T19:26:53.690Z,0.45
2022-08-07T19:30:56.672Z,0.77
2022-08-07T19:32:26.023Z,0.60
2022-08-07T19:35:01.248Z,0.60
2022-08-07T19:37:57.133Z,1.00
2022-08-07T19:40:30.994Z,0.60
2022-08-07T19:43:01.030Z,0.60
2022-08-07T19:46:01.241Z,0.50
2022-08-07T19:48:42.768Z,0.55
2022-08-07T19:51:19.276Z,0.47
2022-08-07T19:54:31.667Z,0.50
2022-08-07T19:57:52.207Z,0.60
2022-08-07T19:59:41.451Z,0.47
2022-08-07T20:04:48.901Z,0.68
2022-08-07T20:07:23.657Z,0.70
2022-08-07T20:10:36.108Z,1.35
2022-08-07T20:12:45.524Z,0.65
2022-08-07T20:15:22.255Z,0.77
2022-08-07T20:18:01.264Z,0.93
2022-08-07T20:20:31.467Z,0.95
2022-08-07T20:23:02.089Z,0.60
2022-08-07T20:25:52.932Z,0.70
2022-08-07T20:28:20.640Z,0.77
2022-08-07T20:30:58.221Z,0.75
2022-08-07T20:33:37.674Z,0.80
2022-08-07T20:36:08.858Z,0.93
2022-08-07T20:38:53.335Z,0.90
2022-08-07T20:41:27.446Z,1.05
2022-08-07T20:43:57.467Z,0.70
2022-08-07T20:46:33.480Z,0.80
2022-08-07T20:50:00.200Z,0.77
2022-08-07T20:51:50.811Z,0.80
2022-08-07T20:54:29.845Z,0.73
2022-08-07T20:57:03.631Z,0.65
2022-08-07T21:00:08.178Z,0.73
2022-08-07T21:02:55.225Z,0.70
2022-08-07T21:05:42.968Z,1.00
2022-08-07T21:08:16.465Z,1.20
2022-08-07T21:10:49.395Z,0.90
2022-08-07T21:13:57.190Z,0.70
2022-08-07T21:16:15.841Z,1.45
2022-08-07T21:18:46.178Z,0.73
2022-08-07T21:21:21.281Z,0.70
2022-08-07T21:24:05.772Z,0.70
2022-08-07T21:27:01.623Z,0.60
2022-08-07T21:30:05.987Z,0.80
2022-08-07T21:32:49.433Z,0.60
2022-08-07T21:36:04.291Z,0.60
2022-08-07T21:38:46.576Z,0.80
2022-08-07T21:41:37.843Z,0.50
2022-08-07T21:44:43.296Z,0.70
2022-08-07T21:47:27.544Z,0.70
2022-08-07T21:50:05.042Z,0.50
2022-08-07T21:55:28.328Z,0.50
2022-08-07T21:58:32.483Z,0.70
2022-08-07T22:01:04.771Z,0.70
2022-08-07T22:03:42.610Z,1.00
2022-08-07T22:06:30.323Z,0.65
2022-08-07T22:09:10.261Z,0.47
2022-08-07T22:12:05.792Z,0.70
2022-08-07T22:14:38.959Z,0.70
2022-08-07T22:17:35.766Z,0.45
2022-08-07T22:20:23.480Z,0.70
2022-08-07T22:22:57.283Z,0.70
2022-08-07T22:26:01.557Z,0.87
2022-08-07T22:28:48.272Z,0.70
2022-08-07T22:31:56.213Z,0.82
2022-08-07T22:34:36.013Z,0.70
2022-08-07T22:37:16.761Z,0.80
2022-08-07T22:39:52.976Z,0.80
2022-08-07T22:42:25.816Z,0.70
2022-08-07T22:45:02.227Z,0.75
2022-08-07T22:47:52.117Z,0.80
2022-08-07T22:50:34.029Z,0.60
2022-08-07T22:54:07.501Z,0.70
2022-08-07T22:56:33.798Z,0.68
2022-08-07T22:59:35.252Z,0.82
2022-08-07T23:02:13.588Z,0.75
2022-08-07T23:04:58.006Z,0.85
2022-08-07T23:08:22.384Z,0.70
2022-08-07T23:11:18.020Z,0.50
2022-08-07T23:14:16.207Z,0.70
2022-08-07T23:17:20.232Z,0.70
2022-08-07T23:20:51.202Z,0.57
2022-08-07T23:24:05.290Z,0.80
2022-08-07T23:29:43.817Z,0.63
2022-08-07T23:34:33.888Z,0.68
2022-08-07T23:36:04.186Z,0.52
2022-08-07T23:38:43.225Z,0.60
2022-08-07T23:42:04.152Z,0.77
2022-08-07T23:44:43.693Z,0.70
2022-08-07T23:47:22.767Z,0.85
2022-08-07T23:50:03.940Z,0.70
2022-08-07T23:53:05.740Z,0.80
2022-08-07T23:55:53.168Z,1.05
2022-08-07T23:58:43.033Z,0.68
